Flight Track Log - Related Links

Times and Time Zones

All times are in EDT time to prevent confusion due to time zone crossing. See the PDT4451 flight status page for this flight to view local times or setup timezone preferences in your user account.

Time Position Orientation Groundspeed Altitude Reporting Facility
EDT Latitude Longitude Course Direction KTS MPH feet Rate Location/Type
Mon 03:22:21 PM 42.3500 -71.0167 324° Northwest 119 137 700  Level KA90
Mon 03:22:52 PM 42.3500 -71.0333 270° West 131 151 1,300 1,187 Climbing KA90
Mon 03:23:52 PM 42.3500 -71.0833 270° West 144 166 2,500 1,200 Climbing KA90
Mon 03:24:52 PM 42.3667 -71.1500 289° West 144 166 3,700 1,056 Climbing KA90
Mon 03:25:00 PM 42.5298 -71.1149 340° North  Level FlightAware Approximate
Mon 03:25:57 PM 42.3667 -71.2000 270° West 139 160 4,700  Level KA90
Mon 03:26:00 PM 42.5919 -71.1485 336° Northwest  Level FlightAware Approximate
Mon 03:26:58 PM 42.3833 -71.2667 289° West 160 184 5,100  Level KA90
Mon 03:27:00 PM 42.6527 -71.1860 324° Northwest  Level FlightAware Approximate
Mon 03:27:58 PM 42.3833 -71.3167 270° West 157 181 6,000  Level KA90
Mon 03:29:04 PM 42.3667 -71.3833 251° West 150 173 7,000 857 Climbing KA90
Mon 03:30:04 PM 42.3667 -71.4333 270° West 147 169 7,800 689 Climbing KA90
Mon 03:31:32 PM 42.3569 -71.5100 260° West 143 165 8,700 608 Climbing Boston Center
Mon 03:32:32 PM 42.3450 -71.5722 255° West 155 178 9,300 500 Climbing Boston Center
Mon 03:33:32 PM 42.3453 -71.6283 270° West 161 185 9,700 500 Climbing Boston Center
Mon 03:34:32 PM 42.3458 -71.6986 271° West 171 197 10,300 500 Climbing Boston Center
Mon 03:35:32 PM 42.3400 -71.7603 263° West 176 203 10,700 454 Climbing Boston Center
Mon 03:36:31 PM 42.3383 -71.8361 268° West 181 208 11,200 500 Climbing Boston Center
Mon 03:37:32 PM 42.3428 -71.8981 276° West 181 208 11,700 496 Climbing Boston Center
Mon 03:38:32 PM 42.3328 -71.9739 260° West 181 208 12,200 500 Climbing Boston Center
Mon 03:39:32 PM 42.3267 -72.0358 262° West 181 208 12,700 500 Climbing Boston Center
Mon 03:40:32 PM 42.3228 -72.1172 266° West 187 215 13,200 500 Climbing Boston Center
Mon 03:42:32 PM 42.3211 -72.2631 269° West 198 228 14,200 500 Climbing Boston Center
Mon 03:43:32 PM 42.3192 -72.3278 268° West 198 228 14,700 500 Climbing Boston Center
Mon 03:44:32 PM 42.3128 -72.4092 264° West 198 228 15,200 450 Climbing Boston Center
Mon 03:45:32 PM 42.3128 -72.4711 270° West 198 228 15,600 364 Climbing Boston Center
Mon 03:46:44 PM 42.3086 -72.5525 266° West 198 228 16,000 182 Climbing Boston Center
Mon 03:47:44 PM 42.3003 -72.6450 263° West 203 234 16,000  Level Boston Center
Mon 03:48:44 PM 42.2981 -72.7264 268° West 208 239 16,000  Level Boston Center
Mon 03:49:44 PM 42.2978 -72.8022 270° West 220 253 16,000  Level Boston Center
Mon 03:50:44 PM 42.3161 -72.8894 286° West 225 259 16,000  Level Boston Center
Mon 03:51:44 PM 42.3575 -72.9542 311° West 241 277 16,000  Level Boston Center
Mon 03:52:44 PM 42.3906 -73.0361 299° West 247 284 16,000 50 Level Boston Center
Mon 03:53:44 PM 42.4256 -73.1236 298° West 247 284 16,100 50 Climbing Boston Center
Mon 03:54:44 PM 42.4606 -73.1886 306° West 247 284 16,100  Level Boston Center
Mon 03:55:44 PM 42.4975 -73.2708 301° West 241 277 16,100  Level Boston Center
Mon 03:56:44 PM 42.5281 -73.3389 301° West 235 270 16,100 -100 Level Boston Center
Mon 03:57:44 PM 42.5692 -73.4156 306° West 230 265 15,900 -100 Descending Boston Center
Mon 03:58:44 PM 42.6000 -73.4781 304° West 225 259 15,900 50 Level Boston Center
Mon 03:59:43 PM 42.6222 -73.5378 297° West 219 252 16,000 50 Climbing Boston Center
Mon 04:00:44 PM 42.6631 -73.6231 303° West 219 252 16,000  Level Boston Center
Mon 04:01:44 PM 42.6997 -73.7031 302° West 229 264 16,000  Level Boston Center
Mon 04:02:44 PM 42.7342 -73.7828 300° West 241 277 16,000  Level Boston Center
Mon 04:03:44 PM 42.7644 -73.8625 297° West 241 277 16,000  Level Boston Center
Mon 04:04:44 PM 42.7719 -73.9447 277° West 234 269 16,000  Level Boston Center
Mon 04:05:43 PM 42.7872 -74.0300 284° West 229 264 16,000  Level Boston Center
Mon 04:06:44 PM 42.8050 -74.1097 287° West 224 258 16,000  Level Boston Center
Mon 04:07:44 PM 42.8164 -74.1864 281° West 224 258 16,000  Level Boston Center
Mon 04:08:56 PM 42.8314 -74.2861 282° West 224 258 16,000  Level Boston Center
Mon 04:09:56 PM 42.8486 -74.3772 287° West 229 264 16,000  Level Boston Center
Mon 04:10:00 PM 42.8531 -74.3824 287° West  Level FlightAware Approximate
Mon 04:10:56 PM 42.8597 -74.4539 281° West 229 264 16,000  Level Boston Center
Mon 04:11:56 PM 42.8792 -74.5453 289° West 229 264 15,900 -102 Descending Boston Center
Mon 04:12:00 PM 42.8906 -74.5457 289° West  Level FlightAware Approximate
Mon 04:12:54 PM 42.8961 -74.6339 285° West 227 261 15,800  Level Boston Center
Mon 04:14:07 PM 42.9108 -74.7278 282° West 220 253 15,200 -492 Descending Boston Center
Mon 04:14:56 PM 42.9161 -74.7792 278° West 222 255 14,800 -694 Descending Boston Center
Mon 04:16:08 PM 42.9367 -74.8906 284° West 219 252 13,800 -800 Descending Boston Center
Mon 04:16:56 PM 42.9481 -74.9447 286° West 222 255 13,200 -833 Descending Boston Center
Mon 04:17:56 PM 42.9628 -75.0333 283° West 228 262 12,300 -900 Descending Boston Center
Mon 04:18:56 PM 42.9817 -75.1194 287° West 233 268 11,400 -950 Descending Boston Center
Mon 04:19:56 PM 42.9942 -75.2081 281° West 238 274 10,400 -700 Descending Boston Center
Mon 04:20:56 PM 43.0086 -75.2939 283° West 238 274 10,000 -250 Descending Boston Center
Mon 04:21:56 PM 43.0231 -75.3881 282° West 238 274 9,900  Descending Boston Center
Mon 04:22:56 PM 43.0350 -75.4797 280° West 238 274 10,000 -150 Climbing Boston Center
Mon 04:23:56 PM 43.0453 -75.5683 279° West 238 274 9,600 -750 Descending Boston Center
Mon 04:24:56 PM 43.0492 -75.6536 274° West 238 274 8,500 -1,000 Descending Boston Center
Mon 04:25:56 PM 43.0403 -75.7442 262° West 238 274 7,600 -800 Descending Boston Center
Mon 04:26:56 PM 43.0275 -75.8231 258° West 228 262 6,900 -740 Descending Boston Center
Mon 04:28:22 PM 43.0092 -75.9469 259° West 218 251 5,800 -750 Descending Boston Center
Mon 04:29:28 PM 42.9958 -76.0400 259° West 219 252 5,000 -567 Descending Boston Center
Mon 04:30:29 PM 42.9850 -76.1189 259° West 207 238 4,600 -522 Descending Boston Center
Mon 04:31:23 PM 42.9786 -76.1894 263° West 203 234 4,000 -313 Descending Boston Center
Mon 04:32:24 PM 42.9633 -76.2681 255° West 211 243 4,000 -295 Level Boston Center
Mon 04:33:25 PM 42.9503 -76.3467 257° West 217 250 3,400 -496 Descending Boston Center
Mon 04:34:25 PM 42.9667 -76.4131 289° West 197 227 3,000 -198 Descending Boston Center
Mon 04:35:26 PM 43.0181 -76.4333 344° North 185 213 3,000 -47 Level Boston Center
Mon 04:36:33 PM 43.0714 -76.4625 338° Northwest 194 223 2,900 -298 Descending Boston Center
Mon 04:37:27 PM 43.0961 -76.4128 56° Northeast 191 220 2,400 -261 Descending Boston Center
Mon 04:38:28 PM 43.1006 -76.3419 85° East 179 206 2,400 -52 Level Boston Center
Mon 04:39:23 PM 43.1028 -76.2794 87° East 177 204 2,300 -109 Descending Boston Center

Login

Don't have an account? Register now (free) for customized features, flight alerts, and more!